createdAt,value
2023-03-11T00:00:30.017Z,100.00
2023-03-11T00:03:00.334Z,100.00
2023-03-11T00:05:31.144Z,100.00
2023-03-11T00:08:00.013Z,100.00
2023-03-11T00:10:30.872Z,100.00
2023-03-11T00:13:00.191Z,100.00
2023-03-11T00:15:29.112Z,100.00
2023-03-11T00:17:57.496Z,100.00
2023-03-11T00:20:31.993Z,100.00
2023-03-11T00:23:00.727Z,100.00
2023-03-11T00:25:30.900Z,100.00
2023-03-11T00:27:59.351Z,100.00
2023-03-11T00:30:28.125Z,100.00
2023-03-11T00:32:57.733Z,100.00
2023-03-11T00:35:28.525Z,100.00
2023-03-11T00:37:59.826Z,100.00
2023-03-11T00:40:29.315Z,100.00
2023-03-11T00:42:57.839Z,100.00
2023-03-11T00:45:26.251Z,100.00
2023-03-11T00:47:54.884Z,100.00
2023-03-11T00:50:26.237Z,100.00
2023-03-11T00:52:54.346Z,100.00
2023-03-11T00:55:25.715Z,100.00
2023-03-11T00:57:55.271Z,100.00
2023-03-11T01:00:24.892Z,100.00
2023-03-11T01:03:00.306Z,100.00
2023-03-11T01:05:30.993Z,100.00
2023-03-11T01:07:59.269Z,100.00
2023-03-11T01:10:29.805Z,100.00
2023-03-11T01:12:57.696Z,100.00
2023-03-11T01:15:34.604Z,100.00
2023-03-11T01:18:04.163Z,100.00
2023-03-11T01:20:32.848Z,100.00
2023-03-11T01:23:00.277Z,100.00
2023-03-11T01:25:29.003Z,100.00
2023-03-11T01:27:59.331Z,100.00
2023-03-11T01:30:28.105Z,100.00
2023-03-11T01:32:57.016Z,100.00
2023-03-11T01:35:27.160Z,100.00
2023-03-11T01:37:55.446Z,100.00
2023-03-11T01:40:57.310Z,100.00
2023-03-11T01:43:39.917Z,100.00
2023-03-11T01:46:12.571Z,100.00
2023-03-11T01:48:45.148Z,100.00
2023-03-11T01:51:13.430Z,100.00
2023-03-11T01:53:41.642Z,100.00
2023-03-11T01:56:09.292Z,100.00
2023-03-11T01:58:41.178Z,100.00
2023-03-11T02:01:08.951Z,100.00
2023-03-11T02:03:39.808Z,100.00
2023-03-11T02:06:11.327Z,100.00
2023-03-11T02:08:42.075Z,100.00
2023-03-11T02:11:15.609Z,100.00
2023-03-11T02:13:45.338Z,100.00
2023-03-11T02:16:14.328Z,100.00
2023-03-11T02:18:43.493Z,100.00
2023-03-11T02:21:32.675Z,100.00
2023-03-11T02:24:29.706Z,100.00
2023-03-11T02:27:02.949Z,100.00
2023-03-11T02:29:33.159Z,100.00
2023-03-11T02:32:08.880Z,100.00
2023-03-11T02:34:39.532Z,100.00
2023-03-11T02:37:10.542Z,100.00
2023-03-11T02:39:40.541Z,97.45
2023-03-11T02:42:14.243Z,93.51
2023-03-11T02:44:46.605Z,90.23
2023-03-11T02:47:15.367Z,90.24
2023-03-11T02:49:43.263Z,90.06
2023-03-11T02:52:12.995Z,88.18
2023-03-11T02:54:40.546Z,87.88
2023-03-11T02:57:08.628Z,83.61
2023-03-11T02:59:36.150Z,83.46
2023-03-11T03:02:04.103Z,79.22
2023-03-11T03:04:32.174Z,78.27
2023-03-11T03:07:00.073Z,79.84
2023-03-11T03:09:27.654Z,77.52
2023-03-11T03:11:56.480Z,76.64
2023-03-11T03:14:24.057Z,76.50
2023-03-11T03:16:51.537Z,77.26
2023-03-11T03:19:19.544Z,76.50
2023-03-11T03:21:47.527Z,77.87
2023-03-11T03:24:15.700Z,77.66
2023-03-11T03:26:43.415Z,78.45
2023-03-11T03:29:11.414Z,78.89
2023-03-11T03:31:39.717Z,80.04
2023-03-11T03:34:08.838Z,79.40
2023-03-11T03:36:37.106Z,79.74
2023-03-11T03:39:05.683Z,80.51
2023-03-11T03:41:34.088Z,79.71
2023-03-11T03:44:02.598Z,79.45
2023-03-11T03:46:30.215Z,80.39
2023-03-11T03:48:58.299Z,81.06
2023-03-11T03:51:26.837Z,80.97
2023-03-11T03:53:55.749Z,81.67
2023-03-11T03:56:25.204Z,81.62
2023-03-11T03:58:53.707Z,80.60
2023-03-11T04:01:21.845Z,81.20
2023-03-11T04:03:50.024Z,81.98
2023-03-11T04:06:25.818Z,81.80
2023-03-11T04:08:55.058Z,81.94
2023-03-11T04:11:23.805Z,82.25
2023-03-11T04:13:51.922Z,82.85
2023-03-11T04:16:22.536Z,82.44
2023-03-11T04:18:50.856Z,81.83
2023-03-11T04:21:18.682Z,82.61
2023-03-11T04:23:46.686Z,82.88
2023-03-11T04:26:14.821Z,83.44
2023-03-11T04:28:42.538Z,83.74
2023-03-11T04:31:10.418Z,83.49
2023-03-11T04:33:38.106Z,84.31
2023-03-11T04:36:08.470Z,84.01
2023-03-11T04:38:36.695Z,85.39
2023-03-11T04:41:06.767Z,84.16
2023-03-11T04:43:35.035Z,84.81
2023-03-11T04:46:03.152Z,84.79
2023-03-11T04:48:30.715Z,85.37
2023-03-11T04:50:58.176Z,85.77
2023-03-11T04:53:29.286Z,85.73
2023-03-11T04:55:57.008Z,84.34
2023-03-11T04:58:24.937Z,79.84
2023-03-11T05:00:53.341Z,76.95
2023-03-11T05:03:21.517Z,74.17
2023-03-11T05:05:49.418Z,71.04
2023-03-11T05:08:20.146Z,71.48
2023-03-11T05:10:47.862Z,70.01
2023-03-11T05:13:15.339Z,70.73
2023-03-11T05:15:45.663Z,70.27
2023-03-11T05:18:14.050Z,69.28
2023-03-11T05:20:42.182Z,70.21
2023-03-11T05:23:10.342Z,69.35
2023-03-11T05:25:37.814Z,68.20
2023-03-11T05:28:05.874Z,68.83
2023-03-11T05:30:34.624Z,68.27
2023-03-11T05:33:02.232Z,65.84
2023-03-11T05:35:29.797Z,63.58
2023-03-11T05:37:57.678Z,63.64
2023-03-11T05:40:26.115Z,62.81
2023-03-11T05:42:53.697Z,62.95
2023-03-11T05:45:21.419Z,62.78
2023-03-11T05:47:52.476Z,63.82
2023-03-11T05:50:20.251Z,64.10
2023-03-11T05:52:48.487Z,65.43
2023-03-11T05:55:16.316Z,64.99
2023-03-11T05:57:44.571Z,65.76
2023-03-11T06:00:12.933Z,66.91
2023-03-11T06:02:41.336Z,67.47
2023-03-11T06:05:13.441Z,68.29
2023-03-11T06:07:43.648Z,70.15
2023-03-11T06:10:12.398Z,71.75
2023-03-11T06:12:40.335Z,73.13
2023-03-11T06:15:08.858Z,74.53
2023-03-11T06:17:36.927Z,75.87
2023-03-11T06:20:06.177Z,76.49
2023-03-11T06:22:34.530Z,76.08
2023-03-11T06:25:02.550Z,77.74
2023-03-11T06:27:31.429Z,78.49
2023-03-11T06:29:59.211Z,80.47
2023-03-11T06:32:29.633Z,82.62
2023-03-11T06:34:57.390Z,83.05
2023-03-11T06:37:25.694Z,82.52
2023-03-11T06:39:54.604Z,85.84
2023-03-11T06:42:24.054Z,87.20
2023-03-11T06:44:52.202Z,88.20
2023-03-11T06:47:20.743Z,88.78
2023-03-11T06:49:50.647Z,84.78
2023-03-11T06:52:18.555Z,86.75
2023-03-11T06:54:46.655Z,87.23
2023-03-11T06:57:16.836Z,86.14
2023-03-11T06:59:45.827Z,79.99
2023-03-11T07:02:15.043Z,73.74
2023-03-11T07:04:42.889Z,69.61
2023-03-11T07:07:10.324Z,64.14
2023-03-11T07:09:38.273Z,63.99
2023-03-11T07:12:06.918Z,59.06
2023-03-11T07:14:34.931Z,59.45
2023-03-11T07:17:02.792Z,59.11
2023-03-11T07:19:31.494Z,57.62
2023-03-11T07:21:58.888Z,58.88
2023-03-11T07:24:26.656Z,56.96
2023-03-11T07:26:54.092Z,55.38
2023-03-11T07:29:21.546Z,55.13
2023-03-11T07:31:49.533Z,54.73
2023-03-11T07:34:17.664Z,53.29
2023-03-11T07:36:45.165Z,52.97
2023-03-11T07:39:16.297Z,51.75
2023-03-11T07:41:44.899Z,55.04
2023-03-11T07:44:14.186Z,53.80
2023-03-11T07:46:42.291Z,55.56
2023-03-11T07:49:10.338Z,53.43
2023-03-11T07:51:42.470Z,53.69
2023-03-11T07:54:12.088Z,53.22
2023-03-11T07:56:40.119Z,54.28
2023-03-11T07:59:07.986Z,55.22
2023-03-11T08:01:41.123Z,54.93
2023-03-11T08:04:14.467Z,56.18
2023-03-11T08:06:43.771Z,54.33
2023-03-11T08:09:12.262Z,54.76
2023-03-11T08:11:39.808Z,55.31
2023-03-11T08:14:07.643Z,54.06
2023-03-11T08:16:35.444Z,54.38
2023-03-11T08:19:03.194Z,54.36
2023-03-11T08:21:32.230Z,54.82
2023-03-11T08:24:01.714Z,55.29
2023-03-11T08:26:30.250Z,53.49
2023-03-11T08:28:59.137Z,51.87
2023-03-11T08:31:29.781Z,53.51
2023-03-11T08:34:05.613Z,53.91
2023-03-11T08:36:34.155Z,52.45
2023-03-11T08:39:02.035Z,52.16
2023-03-11T08:41:29.763Z,50.54
2023-03-11T08:43:57.518Z,51.59
2023-03-11T08:46:36.940Z,52.31
2023-03-11T08:49:06.024Z,50.53
2023-03-11T08:51:34.499Z,49.84
2023-03-11T08:54:03.433Z,50.77
2023-03-11T08:56:31.400Z,49.44
2023-03-11T08:58:59.473Z,49.93
2023-03-11T09:01:26.973Z,50.37
2023-03-11T09:03:54.672Z,49.13
2023-03-11T09:06:22.525Z,49.58
2023-03-11T09:08:50.551Z,50.81
2023-03-11T09:11:19.415Z,49.71
2023-03-11T09:13:46.967Z,51.12
2023-03-11T09:16:17.039Z,51.40
2023-03-11T09:18:45.232Z,49.93
2023-03-11T09:21:13.352Z,49.97
2023-03-11T09:23:43.944Z,50.76
2023-03-11T09:26:12.916Z,47.79
2023-03-11T09:28:41.744Z,46.87
2023-03-11T09:31:09.636Z,47.45
2023-03-11T09:33:40.310Z,47.79
2023-03-11T09:36:08.801Z,47.76
2023-03-11T09:38:36.349Z,47.67
2023-03-11T09:41:06.831Z,47.31
2023-03-11T09:44:00.541Z,48.54
2023-03-11T09:47:04.096Z,48.20
2023-03-11T09:49:59.241Z,47.51
2023-03-11T09:52:56.606Z,48.46
2023-03-11T09:55:27.303Z,48.26
2023-03-11T09:57:57.755Z,49.01
2023-03-11T10:00:25.972Z,49.52
2023-03-11T10:02:53.934Z,48.30
2023-03-11T10:05:27.487Z,47.16
2023-03-11T10:08:44.307Z,46.55
2023-03-11T10:11:34.913Z,48.11
2023-03-11T10:14:03.030Z,46.77
2023-03-11T10:16:41.561Z,47.15
2023-03-11T10:19:44.431Z,46.79
2023-03-11T10:22:44.127Z,47.99
2023-03-11T10:25:39.543Z,46.57
2023-03-11T10:28:16.635Z,44.41
2023-03-11T10:30:52.422Z,44.85
2023-03-11T10:34:10.373Z,45.93
2023-03-11T10:37:03.984Z,46.36
2023-03-11T10:39:33.210Z,45.43
2023-03-11T10:42:04.427Z,45.63
2023-03-11T10:44:35.863Z,46.30
2023-03-11T10:47:04.444Z,45.27
2023-03-11T10:49:32.455Z,45.09
2023-03-11T10:52:03.372Z,46.15
2023-03-11T10:54:34.915Z,47.28
2023-03-11T10:57:05.524Z,47.56
2023-03-11T10:59:45.276Z,47.73
2023-03-11T11:02:19.523Z,46.88
2023-03-11T11:04:47.442Z,45.38
2023-03-11T11:07:36.511Z,46.00
2023-03-11T11:10:21.370Z,44.71
2023-03-11T11:12:54.269Z,44.45
2023-03-11T11:15:33.644Z,44.70
2023-03-11T11:18:23.040Z,44.87
2023-03-11T11:21:02.177Z,46.05
2023-03-11T11:23:32.392Z,47.06
2023-03-11T11:26:07.369Z,45.15
2023-03-11T11:28:35.244Z,46.41
2023-03-11T11:31:06.228Z,45.86
2023-03-11T11:33:57.299Z,44.85
2023-03-11T11:36:31.218Z,45.37
2023-03-11T11:39:00.580Z,44.75
2023-03-11T11:41:32.027Z,45.41
2023-03-11T11:44:02.937Z,45.39
2023-03-11T11:46:37.548Z,45.04
2023-03-11T11:49:25.767Z,46.30
2023-03-11T11:52:11.443Z,45.32
2023-03-11T11:54:58.945Z,45.26
2023-03-11T11:57:27.186Z,44.80
2023-03-11T11:59:57.303Z,43.23
2023-03-11T12:02:34.615Z,42.92
2023-03-11T12:05:08.513Z,43.70
2023-03-11T12:07:45.156Z,44.48
2023-03-11T12:10:37.947Z,42.75
2023-03-11T12:13:23.876Z,43.34
2023-03-11T12:16:16.046Z,42.57
2023-03-11T12:18:57.075Z,42.27
2023-03-11T12:22:02.462Z,42.79
2023-03-11T12:24:32.908Z,41.08
2023-03-11T12:27:08.788Z,41.79
2023-03-11T12:29:43.247Z,42.77
2023-03-11T12:32:25.088Z,41.68
2023-03-11T12:34:53.353Z,42.12
2023-03-11T12:37:23.436Z,41.98
2023-03-11T12:39:51.036Z,41.61
2023-03-11T12:42:21.996Z,40.15
2023-03-11T12:44:50.442Z,39.83
2023-03-11T12:47:20.880Z,39.75
2023-03-11T12:49:52.057Z,39.82
2023-03-11T12:52:23.356Z,38.65
2023-03-11T12:54:56.712Z,38.88
2023-03-11T12:57:46.072Z,40.73
2023-03-11T13:00:38.523Z,40.72
2023-03-11T13:03:13.074Z,40.49
2023-03-11T13:06:19.548Z,39.78
2023-03-11T13:08:56.830Z,40.84
2023-03-11T13:11:33.341Z,39.78
2023-03-11T13:14:35.894Z,39.16
2023-03-11T13:17:31.262Z,38.96
2023-03-11T13:19:59.316Z,38.96
2023-03-11T13:22:52.093Z,38.33
2023-03-11T13:25:38.405Z,38.45
2023-03-11T13:28:24.171Z,37.95
2023-03-11T13:31:05.196Z,39.57
2023-03-11T13:33:52.260Z,39.32
2023-03-11T13:36:57.403Z,39.85
2023-03-11T13:39:47.485Z,38.61
2023-03-11T13:42:31.328Z,38.76
2023-03-11T13:44:59.924Z,40.17
2023-03-11T13:47:30.356Z,40.17
2023-03-11T13:50:07.580Z,39.79
2023-03-11T13:52:46.732Z,39.20
2023-03-11T13:55:40.305Z,40.17
2023-03-11T13:58:25.691Z,39.10
2023-03-11T14:00:55.657Z,39.01
2023-03-11T14:03:25.557Z,37.84
2023-03-11T14:06:00.881Z,38.45
2023-03-11T14:08:31.866Z,37.69
2023-03-11T14:11:01.717Z,38.48
2023-03-11T14:13:38.398Z,38.28
2023-03-11T14:16:35.996Z,38.51
2023-03-11T14:19:15.697Z,39.49
2023-03-11T14:21:44.887Z,39.55
2023-03-11T14:24:31.983Z,38.98
2023-03-11T14:27:02.690Z,38.83
2023-03-11T14:29:36.677Z,39.24
2023-03-11T14:32:23.970Z,39.80
2023-03-11T14:34:51.760Z,40.30
2023-03-11T14:37:36.012Z,41.08
2023-03-11T14:40:21.639Z,41.40
2023-03-11T14:42:53.851Z,41.71
2023-03-11T14:45:24.497Z,40.84
2023-03-11T14:47:56.682Z,40.64
2023-03-11T14:50:27.159Z,41.20
2023-03-11T14:53:02.412Z,41.27
2023-03-11T14:55:57.771Z,40.40
2023-03-11T14:58:36.166Z,41.11
2023-03-11T15:01:13.419Z,41.76
2023-03-11T15:03:53.660Z,42.26
2023-03-11T15:06:30.140Z,42.82
2023-03-11T15:09:10.169Z,43.37
2023-03-11T15:11:52.283Z,42.89
2023-03-11T15:14:50.134Z,43.96
2023-03-11T15:17:38.489Z,44.21
2023-03-11T15:20:31.247Z,42.88
2023-03-11T15:23:04.638Z,42.50
2023-03-11T15:25:36.067Z,42.23
2023-03-11T15:28:33.680Z,42.43
2023-03-11T15:31:19.899Z,42.37
2023-03-11T15:33:49.188Z,44.26
2023-03-11T15:36:31.938Z,42.88
2023-03-11T15:39:08.826Z,43.04
2023-03-11T15:41:36.563Z,43.39
2023-03-11T15:44:07.563Z,43.21
2023-03-11T15:46:35.090Z,41.73
2023-03-11T15:49:02.601Z,42.09
2023-03-11T15:51:30.447Z,42.66
2023-03-11T15:53:58.148Z,42.72
2023-03-11T15:56:25.987Z,43.16
2023-03-11T15:58:53.819Z,43.99
2023-03-11T16:01:28.479Z,43.90
2023-03-11T16:03:56.639Z,44.83
2023-03-11T16:06:24.111Z,44.65
2023-03-11T16:08:51.563Z,44.50
2023-03-11T16:11:19.791Z,44.50
2023-03-11T16:13:47.847Z,44.37
2023-03-11T16:16:17.428Z,44.13
2023-03-11T16:18:45.381Z,44.14
2023-03-11T16:21:17.136Z,44.68
2023-03-11T16:23:52.005Z,45.36
2023-03-11T16:26:22.434Z,46.01
2023-03-11T16:28:50.477Z,47.01
2023-03-11T16:31:18.149Z,46.86
2023-03-11T16:33:45.905Z,46.85
2023-03-11T16:36:13.827Z,47.65
2023-03-11T16:38:47.421Z,49.06
2023-03-11T16:41:17.151Z,48.47
2023-03-11T16:43:45.492Z,48.80
2023-03-11T16:46:13.190Z,48.22
2023-03-11T16:48:41.065Z,48.60
2023-03-11T16:51:08.811Z,48.38
2023-03-11T16:53:36.534Z,47.12
2023-03-11T16:56:05.555Z,47.86
2023-03-11T16:58:33.907Z,48.22
2023-03-11T17:01:01.568Z,48.57
2023-03-11T17:03:41.026Z,48.52
2023-03-11T17:06:10.725Z,48.76
2023-03-11T17:08:38.779Z,48.98
2023-03-11T17:11:13.643Z,48.67
2023-03-11T17:13:41.501Z,49.10
2023-03-11T17:16:09.032Z,49.65
2023-03-11T17:18:37.039Z,49.59
2023-03-11T17:21:10.611Z,49.90
2023-03-11T17:23:39.547Z,49.77
2023-03-11T17:26:10.051Z,50.73
2023-03-11T17:28:38.343Z,50.96
2023-03-11T17:31:10.919Z,51.28
2023-03-11T17:33:38.995Z,51.57
2023-03-11T17:36:09.129Z,51.73
2023-03-11T17:38:36.722Z,52.18
2023-03-11T17:41:13.424Z,51.73
2023-03-11T17:43:42.185Z,52.34
2023-03-11T17:46:14.468Z,52.29
2023-03-11T17:48:47.148Z,52.60
2023-03-11T17:51:18.274Z,52.71
2023-03-11T17:53:47.812Z,52.78
2023-03-11T17:56:18.522Z,53.45
2023-03-11T17:58:46.967Z,53.55
2023-03-11T18:01:21.665Z,54.20
2023-03-11T18:03:50.116Z,54.60
2023-03-11T18:06:19.504Z,54.89
2023-03-11T18:08:48.145Z,55.38
2023-03-11T18:11:19.341Z,52.29
2023-03-11T18:13:47.863Z,52.70
2023-03-11T18:16:24.364Z,53.45
2023-03-11T18:18:54.463Z,52.30
2023-03-11T18:21:27.769Z,52.17
2023-03-11T18:23:57.933Z,52.75
2023-03-11T18:26:27.661Z,50.97
2023-03-11T18:28:57.402Z,51.42
2023-03-11T18:31:26.425Z,50.66
2023-03-11T18:34:00.139Z,50.59
2023-03-11T18:36:33.566Z,50.28
2023-03-11T18:39:02.042Z,50.59
2023-03-11T18:41:32.912Z,51.11
2023-03-11T18:44:01.319Z,50.85
2023-03-11T18:46:33.613Z,51.60
2023-03-11T18:49:03.893Z,51.91
2023-03-11T18:51:32.751Z,51.66
2023-03-11T18:54:02.030Z,52.17
2023-03-11T18:56:32.936Z,52.57
2023-03-11T18:59:00.970Z,52.97
2023-03-11T19:01:29.240Z,53.59
2023-03-11T19:03:59.458Z,54.45
2023-03-11T19:06:29.342Z,54.33
2023-03-11T19:09:00.729Z,55.73
2023-03-11T19:11:28.483Z,55.60
2023-03-11T19:13:56.023Z,56.35
2023-03-11T19:16:26.220Z,56.31
2023-03-11T19:18:55.274Z,55.49
2023-03-11T19:21:23.550Z,55.80
2023-03-11T19:23:55.067Z,55.69
2023-03-11T19:26:41.534Z,55.31
2023-03-11T19:29:13.557Z,54.06
2023-03-11T19:31:43.407Z,54.40
2023-03-11T19:34:11.413Z,55.31
2023-03-11T19:36:39.526Z,54.67
2023-03-11T19:39:08.214Z,54.29
2023-03-11T19:41:36.067Z,54.62
2023-03-11T19:44:04.361Z,54.63
2023-03-11T19:46:34.750Z,55.30
2023-03-11T19:49:03.493Z,55.39
2023-03-11T19:51:46.334Z,55.76
2023-03-11T19:54:16.733Z,55.95
2023-03-11T19:56:45.812Z,56.76
2023-03-11T19:59:13.543Z,56.51
2023-03-11T20:01:42.389Z,56.82
2023-03-11T20:04:11.148Z,57.70
2023-03-11T20:06:38.998Z,58.28
2023-03-11T20:09:07.001Z,58.28
2023-03-11T20:11:40.911Z,58.90
2023-03-11T20:14:10.401Z,58.78
2023-03-11T20:16:39.133Z,58.68
2023-03-11T20:19:06.856Z,58.73
2023-03-11T20:21:38.997Z,59.02
2023-03-11T20:24:08.577Z,59.30
2023-03-11T20:26:36.949Z,59.62
2023-03-11T20:29:05.940Z,60.15
2023-03-11T20:31:34.820Z,59.70
2023-03-11T20:34:03.427Z,59.50
2023-03-11T20:36:33.269Z,60.13
2023-03-11T20:39:02.317Z,59.91
2023-03-11T20:41:35.753Z,60.05
2023-03-11T20:44:05.770Z,60.76
2023-03-11T20:46:34.058Z,60.69
2023-03-11T20:49:03.062Z,60.80
2023-03-11T20:51:32.523Z,60.67
2023-03-11T20:54:00.341Z,60.41
2023-03-11T20:56:28.583Z,60.12
2023-03-11T20:58:59.169Z,60.97
2023-03-11T21:01:30.105Z,61.29
2023-03-11T21:04:01.433Z,61.61
2023-03-11T21:06:32.504Z,62.80
2023-03-11T21:09:04.871Z,63.04
2023-03-11T21:11:33.499Z,63.06
2023-03-11T21:14:01.887Z,64.16
2023-03-11T21:16:29.774Z,63.43
2023-03-11T21:18:57.981Z,63.90
2023-03-11T21:21:25.933Z,63.80
2023-03-11T21:23:54.203Z,64.41
2023-03-11T21:26:21.750Z,64.52
2023-03-11T21:28:49.503Z,64.40
2023-03-11T21:31:20.550Z,64.75
2023-03-11T21:33:48.477Z,64.36
2023-03-11T21:36:17.128Z,64.99
2023-03-11T21:38:46.919Z,65.21
2023-03-11T21:41:20.432Z,65.47
2023-03-11T21:43:48.575Z,65.39
2023-03-11T21:46:18.950Z,65.55
2023-03-11T21:48:47.498Z,65.70
2023-03-11T21:51:23.912Z,66.50
2023-03-11T21:53:51.504Z,66.13
2023-03-11T21:56:19.587Z,65.89
2023-03-11T21:58:47.652Z,66.12
2023-03-11T22:01:15.931Z,66.05
2023-03-11T22:03:44.182Z,65.87
2023-03-11T22:06:12.376Z,65.81
2023-03-11T22:08:40.354Z,66.21
2023-03-11T22:11:10.218Z,66.64
2023-03-11T22:13:37.797Z,65.96
2023-03-11T22:16:06.868Z,65.74
2023-03-11T22:18:34.726Z,66.33
2023-03-11T22:21:02.852Z,66.20
2023-03-11T22:23:30.723Z,65.89
2023-03-11T22:25:58.671Z,65.90
2023-03-11T22:28:26.227Z,65.73
2023-03-11T22:30:53.851Z,65.40
2023-03-11T22:33:21.582Z,65.23
2023-03-11T22:35:59.525Z,65.60
2023-03-11T22:38:27.652Z,65.36
2023-03-11T22:40:55.087Z,65.86
2023-03-11T22:43:22.783Z,65.75
2023-03-11T22:45:50.547Z,65.59
2023-03-11T22:48:18.053Z,65.94
2023-03-11T22:50:45.597Z,65.71
2023-03-11T22:53:15.140Z,65.50
2023-03-11T22:55:44.038Z,65.56
2023-03-11T22:58:12.301Z,66.12
2023-03-11T23:00:40.654Z,66.16
2023-03-11T23:03:08.206Z,66.33
2023-03-11T23:05:41.836Z,66.44
2023-03-11T23:08:13.537Z,66.66
2023-03-11T23:10:42.364Z,66.45
2023-03-11T23:13:10.957Z,66.36
2023-03-11T23:15:41.394Z,66.92
2023-03-11T23:18:09.263Z,67.09
2023-03-11T23:20:39.894Z,66.48
2023-03-11T23:23:08.900Z,67.39
2023-03-11T23:25:36.777Z,67.15
2023-03-11T23:28:05.749Z,67.98
2023-03-11T23:30:33.434Z,67.35
2023-03-11T23:33:02.986Z,67.52
2023-03-11T23:35:31.407Z,67.97
2023-03-11T23:38:00.179Z,68.36
2023-03-11T23:40:28.593Z,68.47
2023-03-11T23:42:56.162Z,69.12
2023-03-11T23:45:23.930Z,68.58
2023-03-11T23:47:51.708Z,68.58
2023-03-11T23:50:19.463Z,68.75
2023-03-11T23:52:46.973Z,68.61
2023-03-11T23:55:15.156Z,69.20
2023-03-11T23:57:42.608Z,69.25
